createdAt,value
2018-02-27T00:00:48.502Z,70.1
2018-02-27T00:01:47.253Z,70.1
2018-02-27T00:02:46.100Z,70.6
2018-02-27T00:03:44.943Z,70.8
2018-02-27T00:04:43.770Z,70.3
2018-02-27T00:05:42.601Z,70
2018-02-27T00:06:41.593Z,69.9
2018-02-27T00:07:40.315Z,70.3
2018-02-27T00:08:39.146Z,70.3
2018-02-27T00:09:37.976Z,70.4
2018-02-27T00:10:36.799Z,70.2
2018-02-27T00:11:35.629Z,70
2018-02-27T00:12:34.349Z,70.2
2018-02-27T00:13:33.071Z,69.9
2018-02-27T00:15:30.884Z,69.7
2018-02-27T00:16:29.936Z,69.8
2018-02-27T00:17:28.441Z,69.6
2018-02-27T00:19:26.149Z,69.5
2018-02-27T00:21:23.757Z,69.7
2018-02-27T00:22:22.475Z,69.5
2018-02-27T00:23:21.624Z,69.3
2018-02-27T00:24:20.457Z,69.4
2018-02-27T00:25:19.296Z,69.5
2018-02-27T00:26:18.017Z,70.4
2018-02-27T00:27:17.070Z,69.9
2018-02-27T00:28:15.717Z,69.6
2018-02-27T00:29:14.447Z,69.3
2018-02-27T00:30:13.172Z,69.3
2018-02-27T00:31:12.003Z,69.3
2018-02-27T00:32:10.620Z,70.3
2018-02-27T00:33:09.953Z,70.4
2018-02-27T00:34:08.783Z,70
2018-02-27T00:35:07.117Z,69.6
2018-02-27T00:37:04.939Z,69.9
2018-02-27T00:38:03.894Z,69.5
2018-02-27T00:40:01.212Z,69.8
2018-02-27T00:41:58.930Z,70
2018-02-27T00:42:57.755Z,70.1
2018-02-27T00:43:56.585Z,70.3
2018-02-27T00:44:55.411Z,70.1
2018-02-27T00:45:54.456Z,69.5
2018-02-27T00:47:51.881Z,69.2
2018-02-27T00:48:50.621Z,69.7
2018-02-27T00:49:49.774Z,69.5
2018-02-27T00:50:48.714Z,69.5
2018-02-27T00:51:47.549Z,70.1
2018-02-27T00:52:46.272Z,69.8
2018-02-27T00:53:44.810Z,69.6
2018-02-27T00:54:43.959Z,70
2018-02-27T00:56:41.387Z,69.8
2018-02-27T00:57:40.435Z,70.3
2018-02-27T00:58:39.078Z,69.8
2018-02-27T00:59:37.913Z,69.8
2018-02-27T01:00:36.527Z,70
2018-02-27T01:02:34.132Z,70.4
2018-02-27T01:03:33.193Z,70.3
2018-02-27T01:04:32.242Z,70.6
2018-02-27T01:05:30.673Z,70.5
2018-02-27T01:06:29.611Z,70.5
2018-02-27T01:07:28.335Z,70.5
2018-02-27T01:08:27.379Z,70.3
2018-02-27T01:09:26.099Z,70.1
2018-02-27T01:11:23.708Z,70
2018-02-27T01:12:22.539Z,70.1
2018-02-27T01:13:21.593Z,70
2018-02-27T01:14:19.936Z,70.3
2018-02-27T01:16:17.863Z,70.4
2018-02-27T01:16:48.292Z,70.4
2018-02-27T01:17:18.543Z,70.8
2018-02-27T01:17:48.800Z,70.8
2018-02-27T01:19:14.408Z,70.6
2018-02-27T01:20:13.457Z,70.8
2018-02-27T01:22:10.774Z,71.2
2018-02-27T01:23:09.753Z,71.4
2018-02-27T01:24:08.192Z,71.7
2018-02-27T01:25:07.236Z,71.4
2018-02-27T01:26:06.181Z,71.3
2018-02-27T01:28:03.792Z,71.3
2018-02-27T01:29:02.227Z,71.2
2018-02-27T01:30:01.054Z,71.2
2018-02-27T01:30:59.892Z,71.2
2018-02-27T01:31:58.726Z,71.3
2018-02-27T01:32:57.950Z,71.4
2018-02-27T01:33:56.886Z,71.5
2018-02-27T01:34:55.218Z,71.6
2018-02-27T01:35:54.169Z,71.5
2018-02-27T01:36:53.112Z,71.4
2018-02-27T01:37:52.048Z,71.5
2018-02-27T01:38:50.592Z,71.5
2018-02-27T01:39:49.422Z,71.6
2018-02-27T01:40:48.361Z,71.6
2018-02-27T01:41:47.295Z,71.4
2018-02-27T01:42:45.836Z,71.6
2018-02-27T01:43:44.845Z,72
2018-02-27T01:44:43.897Z,72.1
2018-02-27T01:45:42.339Z,72
2018-02-27T01:46:41.168Z,71.9
2018-02-27T01:47:39.897Z,71.8
2018-02-27T01:48:38.626Z,72.1
2018-02-27T01:49:37.958Z,72.4
2018-02-27T01:50:36.386Z,72.5
2018-02-27T01:51:35.328Z,72.5
2018-02-27T01:52:34.274Z,72.5
2018-02-27T01:53:33.100Z,72.4
2018-02-27T01:54:31.933Z,72.3
2018-02-27T01:55:02.187Z,72.3
2018-02-27T01:55:32.732Z,72.5
2018-02-27T01:56:03.273Z,72.5
2018-02-27T01:56:33.941Z,72.6
2018-02-27T01:57:04.579Z,72.6
2018-02-27T01:58:27.168Z,72.7
2018-02-27T01:59:25.889Z,72.6
2018-02-27T02:01:23.273Z,72.6
2018-02-27T02:02:22.226Z,72.6
2018-02-27T02:03:21.173Z,72.9
2018-02-27T02:04:19.987Z,72.9
2018-02-27T02:04:50.233Z,72.9
2018-02-27T02:06:17.435Z,73
2018-02-27T02:07:16.380Z,72.7
2018-02-27T02:08:15.210Z,72.8
2018-02-27T02:09:14.045Z,72.6
2018-02-27T02:10:12.987Z,72.6
2018-02-27T02:11:11.500Z,72.9
2018-02-27T02:12:10.724Z,73.2
2018-02-27T02:13:09.270Z,73
2018-02-27T02:14:08.318Z,73
2018-02-27T02:16:05.848Z,73
2018-02-27T02:17:04.803Z,72.8
2018-02-27T02:18:03.353Z,72.8
2018-02-27T02:19:02.008Z,73
2018-02-27T02:20:00.850Z,73.2
2018-02-27T02:20:59.966Z,73.2
2018-02-27T02:21:58.296Z,73.2
2018-02-27T02:22:57.304Z,73.3
2018-02-27T02:23:56.136Z,73.1
2018-02-27T02:24:55.074Z,73.4
2018-02-27T02:25:53.792Z,73.4
2018-02-27T02:26:52.737Z,73.3
2018-02-27T02:28:49.944Z,73
2018-02-27T02:29:48.780Z,73.1
2018-02-27T02:30:47.717Z,73.5
2018-02-27T02:31:46.557Z,73.2
2018-02-27T02:32:45.502Z,73.3
2018-02-27T02:34:43.214Z,73.4
2018-02-27T02:35:13.479Z,73.4
2018-02-27T02:35:44.138Z,73.4
2018-02-27T02:36:14.629Z,73.4
2018-02-27T02:37:39.746Z,73.1
2018-02-27T02:39:37.178Z,73.1
2018-02-27T02:41:34.616Z,73.3
2018-02-27T02:42:33.569Z,73.7
2018-02-27T02:43:32.509Z,73.8
2018-02-27T02:44:31.337Z,73.6
2018-02-27T02:45:29.889Z,73.7
2018-02-27T02:46:00.248Z,73.7
2018-02-27T02:46:30.393Z,73.6
2018-02-27T02:47:00.941Z,73.6
2018-02-27T02:48:26.344Z,73.7
2018-02-27T02:49:25.069Z,73.6
2018-02-27T02:50:24.012Z,73.5
2018-02-27T02:51:22.862Z,73.6
2018-02-27T02:52:21.922Z,73.4
2018-02-27T02:53:20.644Z,73.5
2018-02-27T02:54:19.585Z,73.7
2018-02-27T02:55:18.237Z,73.5
2018-02-27T02:56:16.670Z,73.4
2018-02-27T02:57:15.508Z,73.5
2018-02-27T02:58:14.448Z,73.6
2018-02-27T03:00:12.370Z,73.8
2018-02-27T03:01:11.017Z,73.9
2018-02-27T03:02:09.620Z,73.9
2018-02-27T03:03:08.455Z,73.6
2018-02-27T03:04:07.498Z,73.8
2018-02-27T03:05:05.927Z,74.3
2018-02-27T03:07:03.748Z,74.4
2018-02-27T03:08:02.797Z,73.7
2018-02-27T03:09:01.737Z,73.6
2018-02-27T03:10:00.279Z,73.4
2018-02-27T03:11:57.772Z,73.7
2018-02-27T03:12:56.893Z,73.5
2018-02-27T03:13:55.724Z,73.1
2018-02-27T03:14:54.157Z,73.1
2018-02-27T03:15:53.094Z,73.9
2018-02-27T03:16:51.817Z,73.7
2018-02-27T03:17:50.880Z,73.3
2018-02-27T03:18:49.714Z,73.5
2018-02-27T03:19:48.152Z,73.3
2018-02-27T03:21:45.646Z,72.9
2018-02-27T03:22:44.947Z,73.1
2018-02-27T03:23:43.374Z,73.2
2018-02-27T03:26:39.969Z,72.9
2018-02-27T03:27:38.904Z,72.8
2018-02-27T03:28:37.627Z,73
2018-02-27T03:29:36.558Z,72.8
2018-02-27T03:30:35.106Z,73.1
2018-02-27T03:31:34.058Z,73.3
2018-02-27T03:33:31.623Z,72.7
2018-02-27T03:34:30.557Z,72.6
2018-02-27T03:37:26.854Z,72.7
2018-02-27T03:38:25.789Z,73
2018-02-27T03:39:24.617Z,72.7
2018-02-27T03:40:23.427Z,72.9
2018-02-27T03:43:19.620Z,72.4
2018-02-27T03:44:18.517Z,72.3
2018-02-27T03:45:17.122Z,72.3
2018-02-27T03:47:14.714Z,72.5
2018-02-27T03:48:13.708Z,72.1
2018-02-27T03:49:12.304Z,72.1
2018-02-27T03:49:42.517Z,72.1
2018-02-27T03:50:13.157Z,72.4
2018-02-27T03:51:09.967Z,72.2
2018-02-27T03:52:09.078Z,72.2
2018-02-27T03:53:07.674Z,72.2
2018-02-27T03:54:06.490Z,72.4
2018-02-27T03:55:05.304Z,72.3
2018-02-27T03:56:04.221Z,72.7
2018-02-27T03:57:02.821Z,72.6
2018-02-27T03:58:01.820Z,72.5
2018-02-27T03:59:00.794Z,72.5
2018-02-27T03:59:59.409Z,72.8
2018-02-27T04:00:58.355Z,72.7
2018-02-27T04:01:57.188Z,72.4
2018-02-27T04:02:55.820Z,72.3
2018-02-27T04:03:54.416Z,72.6
2018-02-27T04:04:53.528Z,72.7
2018-02-27T04:05:52.135Z,72.6
2018-02-27T04:06:50.852Z,72.8
2018-02-27T04:07:49.851Z,72.8
2018-02-27T04:08:48.562Z,72.7
2018-02-27T04:09:47.371Z,73
2018-02-27T21:14:54.713Z,65.5
